sensor_id;sensor_type;location;lat;lon;timestamp;noise_LAeq;noise_LA_min;noise_LA_max;noise_LA01;noise_LA95
72160;Laerm;60045;51.792;10.938;2023-04-08T00:00:00;32.54;31.18;35.94;;
72160;Laerm;60045;51.792;10.938;2023-04-08T00:02:26;32.84;31.31;35.35;;
72160;Laerm;60045;51.792;10.938;2023-04-08T00:04:53;32.45;30.86;36.19;;
72160;Laerm;60045;51.792;10.938;2023-04-08T00:07:19;32.43;30.99;33.88;;
72160;Laerm;60045;51.792;10.938;2023-04-08T00:09:45;32.52;31.29;34.29;;
72160;Laerm;60045;51.792;10.938;2023-04-08T00:12:11;32.58;31.14;35.60;;
72160;Laerm;60045;51.792;10.938;2023-04-08T00:14:38;32.44;31.17;37.19;;
72160;Laerm;60045;51.792;10.938;2023-04-08T00:17:06;32.42;31.14;34.87;;
72160;Laerm;60045;51.792;10.938;2023-04-08T00:19:33;32.45;31.11;35.52;;
72160;Laerm;60045;51.792;10.938;2023-04-08T00:21:59;52.04;31.23;69.87;;
72160;Laerm;60045;51.792;10.938;2023-04-08T00:24:25;33.59;31.53;40.94;;
72160;Laerm;60045;51.792;10.938;2023-04-08T00:26:52;55.12;31.70;73.87;;
72160;Laerm;60045;51.792;10.938;2023-04-08T00:29:18;43.74;36.04;61.48;;
72160;Laerm;60045;51.792;10.938;2023-04-08T00:31:44;42.58;36.73;53.17;;
72160;Laerm;60045;51.792;10.938;2023-04-08T00:34:11;38.53;34.60;49.44;;
72160;Laerm;60045;51.792;10.938;2023-04-08T00:36:38;37.65;33.61;57.06;;
72160;Laerm;60045;51.792;10.938;2023-04-08T00:39:04;35.73;33.22;46.01;;
72160;Laerm;60045;51.792;10.938;2023-04-08T00:41:32;35.39;32.66;46.71;;
72160;Laerm;60045;51.792;10.938;2023-04-08T00:43:58;38.81;34.56;51.24;;
72160;Laerm;60045;51.792;10.938;2023-04-08T00:46:24;52.64;35.01;68.28;;
72160;Laerm;60045;51.792;10.938;2023-04-08T00:48:51;36.79;33.16;49.98;;
72160;Laerm;60045;51.792;10.938;2023-04-08T00:51:19;39.72;34.00;48.96;;
72160;Laerm;60045;51.792;10.938;2023-04-08T00:53:45;37.71;33.84;57.57;;
72160;Laerm;60045;51.792;10.938;2023-04-08T00:56:11;36.34;33.32;50.19;;
72160;Laerm;60045;51.792;10.938;2023-04-08T00:58:38;35.65;32.89;49.38;;
72160;Laerm;60045;51.792;10.938;2023-04-08T01:01:06;35.16;32.47;49.68;;
72160;Laerm;60045;51.792;10.938;2023-04-08T01:03:37;34.62;32.18;46.22;;
72160;Laerm;60045;51.792;10.938;2023-04-08T01:06:08;34.34;31.91;46.70;;
72160;Laerm;60045;51.792;10.938;2023-04-08T01:08:37;34.40;32.01;45.48;;
72160;Laerm;60045;51.792;10.938;2023-04-08T01:11:05;34.30;32.13;46.10;;
72160;Laerm;60045;51.792;10.938;2023-04-08T01:13:36;34.27;32.28;46.90;;
72160;Laerm;60045;51.792;10.938;2023-04-08T01:16:04;36.87;32.28;47.86;;
72160;Laerm;60045;51.792;10.938;2023-04-08T01:18:31;35.61;32.56;50.56;;
72160;Laerm;60045;51.792;10.938;2023-04-08T01:20:58;56.12;32.36;76.11;;
72160;Laerm;60045;51.792;10.938;2023-04-08T01:23:28;34.34;32.23;46.50;;
72160;Laerm;60045;51.792;10.938;2023-04-08T01:25:59;33.88;31.65;46.56;;
72160;Laerm;60045;51.792;10.938;2023-04-08T01:28:26;33.96;31.82;48.55;;
72160;Laerm;60045;51.792;10.938;2023-04-08T01:30:53;53.48;32.02;70.75;;
72160;Laerm;60045;51.792;10.938;2023-04-08T01:33:20;33.89;31.62;49.96;;
72160;Laerm;60045;51.792;10.938;2023-04-08T01:35:47;53.42;31.85;72.47;;
72160;Laerm;60045;51.792;10.938;2023-04-08T01:38:14;57.19;31.78;75.90;;
72160;Laerm;60045;51.792;10.938;2023-04-08T01:40:42;33.57;31.64;48.58;;
72160;Laerm;60045;51.792;10.938;2023-04-08T01:43:10;62.35;31.30;80.25;;
72160;Laerm;60045;51.792;10.938;2023-04-08T01:45:36;38.92;31.57;52.75;;
72160;Laerm;60045;51.792;10.938;2023-04-08T01:48:03;33.54;31.59;51.57;;
72160;Laerm;60045;51.792;10.938;2023-04-08T01:50:31;34.40;31.55;45.88;;
72160;Laerm;60045;51.792;10.938;2023-04-08T01:52:58;55.07;31.73;72.59;;
72160;Laerm;60045;51.792;10.938;2023-04-08T01:55:25;33.76;31.80;48.03;;
72160;Laerm;60045;51.792;10.938;2023-04-08T01:57:51;56.14;31.63;74.34;;
72160;Laerm;60045;51.792;10.938;2023-04-08T02:00:20;54.75;32.05;72.49;;
72160;Laerm;60045;51.792;10.938;2023-04-08T02:02:47;33.39;31.66;49.26;;
72160;Laerm;60045;51.792;10.938;2023-04-08T02:05:14;33.13;31.41;45.23;;
72160;Laerm;60045;51.792;10.938;2023-04-08T02:07:40;51.18;31.46;68.54;;
72160;Laerm;60045;51.792;10.938;2023-04-08T02:10:06;33.00;31.30;44.17;;
72160;Laerm;60045;51.792;10.938;2023-04-08T02:12:33;33.00;31.16;46.46;;
72160;Laerm;60045;51.792;10.938;2023-04-08T02:14:59;33.51;31.23;49.89;;
72160;Laerm;60045;51.792;10.938;2023-04-08T02:17:34;33.17;31.28;48.86;;
72160;Laerm;60045;51.792;10.938;2023-04-08T02:20:02;33.15;31.19;44.89;;
72160;Laerm;60045;51.792;10.938;2023-04-08T02:22:34;32.89;31.25;44.44;;
72160;Laerm;60045;51.792;10.938;2023-04-08T02:25:03;33.41;31.18;49.66;;
72160;Laerm;60045;51.792;10.938;2023-04-08T02:27:29;33.08;31.48;51.19;;
72160;Laerm;60045;51.792;10.938;2023-04-08T02:29:59;33.28;31.40;53.31;;
72160;Laerm;60045;51.792;10.938;2023-04-08T02:32:29;33.10;31.29;44.07;;
72160;Laerm;60045;51.792;10.938;2023-04-08T02:34:58;33.06;30.90;44.57;;
72160;Laerm;60045;51.792;10.938;2023-04-08T02:37:24;32.83;31.06;42.91;;
72160;Laerm;60045;51.792;10.938;2023-04-08T02:39:51;33.08;31.05;47.19;;
72160;Laerm;60045;51.792;10.938;2023-04-08T02:42:17;33.09;31.34;45.88;;
72160;Laerm;60045;51.792;10.938;2023-04-08T02:44:43;33.79;31.21;46.13;;
72160;Laerm;60045;51.792;10.938;2023-04-08T02:47:09;55.70;31.62;75.50;;
72160;Laerm;60045;51.792;10.938;2023-04-08T02:49:37;33.13;31.40;44.00;;
72160;Laerm;60045;51.792;10.938;2023-04-08T02:52:03;49.52;31.93;66.58;;
72160;Laerm;60045;51.792;10.938;2023-04-08T02:54:29;51.18;31.63;68.48;;
72160;Laerm;60045;51.792;10.938;2023-04-08T02:56:56;33.46;31.59;54.89;;
72160;Laerm;60045;51.792;10.938;2023-04-08T02:59:22;53.25;31.82;71.10;;
72160;Laerm;60045;51.792;10.938;2023-04-08T03:01:48;38.29;31.53;53.31;;
72160;Laerm;60045;51.792;10.938;2023-04-08T03:04:14;61.89;31.97;78.59;;
72160;Laerm;60045;51.792;10.938;2023-04-08T03:06:42;50.73;31.31;69.00;;
72160;Laerm;60045;51.792;10.938;2023-04-08T03:09:08;34.79;31.49;51.91;;
72160;Laerm;60045;51.792;10.938;2023-04-08T03:11:35;58.86;31.85;78.26;;
72160;Laerm;60045;51.792;10.938;2023-04-08T03:14:01;53.72;32.69;69.21;;
72160;Laerm;60045;51.792;10.938;2023-04-08T03:16:27;33.45;31.72;44.68;;
72160;Laerm;60045;51.792;10.938;2023-04-08T03:18:53;33.74;31.77;47.08;;
72160;Laerm;60045;51.792;10.938;2023-04-08T03:21:20;50.94;31.57;69.16;;
72160;Laerm;60045;51.792;10.938;2023-04-08T03:23:47;34.23;32.07;47.97;;
72160;Laerm;60045;51.792;10.938;2023-04-08T03:26:13;56.48;32.41;69.76;;
72160;Laerm;60045;51.792;10.938;2023-04-08T03:28:40;33.59;31.79;43.56;;
72160;Laerm;60045;51.792;10.938;2023-04-08T03:31:06;36.01;32.06;45.71;;
72160;Laerm;60045;51.792;10.938;2023-04-08T03:33:32;52.33;32.18;68.72;;
72160;Laerm;60045;51.792;10.938;2023-04-08T03:35:58;65.21;33.27;81.77;;
72160;Laerm;60045;51.792;10.938;2023-04-08T03:38:24;54.23;31.68;74.10;;
72160;Laerm;60045;51.792;10.938;2023-04-08T03:40:52;53.61;32.07;72.47;;
72160;Laerm;60045;51.792;10.938;2023-04-08T03:43:18;34.58;32.07;54.58;;
72160;Laerm;60045;51.792;10.938;2023-04-08T03:45:45;58.83;32.57;76.47;;
72160;Laerm;60045;51.792;10.938;2023-04-08T03:48:12;41.20;31.94;55.73;;
72160;Laerm;60045;51.792;10.938;2023-04-08T03:50:38;55.34;32.48;73.45;;
72160;Laerm;60045;51.792;10.938;2023-04-08T03:53:04;46.16;32.44;63.01;;
72160;Laerm;60045;51.792;10.938;2023-04-08T03:55:30;47.51;32.16;63.66;;
72160;Laerm;60045;51.792;10.938;2023-04-08T03:57:58;48.86;33.05;65.58;;
72160;Laerm;60045;51.792;10.938;2023-04-08T04:00:24;50.59;33.80;65.72;;
72160;Laerm;60045;51.792;10.938;2023-04-08T04:02:50;52.78;34.68;66.42;;
72160;Laerm;60045;51.792;10.938;2023-04-08T04:05:17;51.72;36.41;62.74;;
72160;Laerm;60045;51.792;10.938;2023-04-08T04:07:43;53.35;38.97;66.26;;
72160;Laerm;60045;51.792;10.938;2023-04-08T04:10:09;53.46;40.27;64.08;;
72160;Laerm;60045;51.792;10.938;2023-04-08T04:12:36;56.98;38.77;71.21;;
72160;Laerm;60045;51.792;10.938;2023-04-08T04:15:04;58.89;39.35;71.48;;
72160;Laerm;60045;51.792;10.938;2023-04-08T04:17:30;57.35;39.40;74.25;;
72160;Laerm;60045;51.792;10.938;2023-04-08T04:19:56;53.49;37.44;68.80;;
72160;Laerm;60045;51.792;10.938;2023-04-08T04:22:22;56.52;36.24;72.47;;
72160;Laerm;60045;51.792;10.938;2023-04-08T04:24:49;53.52;37.44;67.95;;
72160;Laerm;60045;51.792;10.938;2023-04-08T04:27:15;49.07;37.43;59.34;;
72160;Laerm;60045;51.792;10.938;2023-04-08T04:29:41;53.43;37.72;69.61;;
72160;Laerm;60045;51.792;10.938;2023-04-08T04:32:09;60.66;37.95;74.97;;
72160;Laerm;60045;51.792;10.938;2023-04-08T04:34:35;49.47;36.10;61.85;;
72160;Laerm;60045;51.792;10.938;2023-04-08T04:37:01;48.79;35.13;61.27;;
72160;Laerm;60045;51.792;10.938;2023-04-08T04:39:27;47.63;35.66;59.96;;
72160;Laerm;60045;51.792;10.938;2023-04-08T04:41:54;60.45;34.46;77.49;;
72160;Laerm;60045;51.792;10.938;2023-04-08T04:44:20;51.23;33.53;66.89;;
72160;Laerm;60045;51.792;10.938;2023-04-08T04:46:46;53.56;33.78;70.63;;
72160;Laerm;60045;51.792;10.938;2023-04-08T04:49:14;59.64;35.08;72.30;;
72160;Laerm;60045;51.792;10.938;2023-04-08T04:51:40;57.64;34.09;73.46;;
72160;Laerm;60045;51.792;10.938;2023-04-08T04:54:06;57.63;35.36;73.83;;
72160;Laerm;60045;51.792;10.938;2023-04-08T04:56:32;49.47;34.02;64.17;;
72160;Laerm;60045;51.792;10.938;2023-04-08T04:58:59;55.45;35.53;71.35;;
72160;Laerm;60045;51.792;10.938;2023-04-08T05:01:25;58.19;34.08;72.76;;
72160;Laerm;60045;51.792;10.938;2023-04-08T05:03:52;58.10;33.48;74.71;;
72160;Laerm;60045;51.792;10.938;2023-04-08T05:06:21;58.76;36.26;70.71;;
72160;Laerm;60045;51.792;10.938;2023-04-08T05:08:47;53.14;32.99;69.19;;
72160;Laerm;60045;51.792;10.938;2023-04-08T05:11:15;46.30;33.14;63.73;;
72160;Laerm;60045;51.792;10.938;2023-04-08T05:13:42;42.86;33.08;59.26;;
72160;Laerm;60045;51.792;10.938;2023-04-08T05:16:08;55.17;33.02;73.55;;
72160;Laerm;60045;51.792;10.938;2023-04-08T05:18:34;47.32;33.03;64.48;;
72160;Laerm;60045;51.792;10.938;2023-04-08T05:21:01;53.87;33.35;71.15;;
72160;Laerm;60045;51.792;10.938;2023-04-08T05:23:28;51.91;32.84;67.48;;
72160;Laerm;60045;51.792;10.938;2023-04-08T05:25:55;55.65;34.14;69.26;;
72160;Laerm;60045;51.792;10.938;2023-04-08T05:28:21;46.97;33.22;64.28;;
72160;Laerm;60045;51.792;10.938;2023-04-08T05:30:48;59.58;35.00;77.31;;
72160;Laerm;60045;51.792;10.938;2023-04-08T05:33:14;60.70;35.19;76.22;;
72160;Laerm;60045;51.792;10.938;2023-04-08T05:35:40;50.64;33.49;63.29;;
72160;Laerm;60045;51.792;10.938;2023-04-08T05:38:07;60.04;35.27;74.44;;
72160;Laerm;60045;51.792;10.938;2023-04-08T05:40:34;59.23;33.97;73.11;;
72160;Laerm;60045;51.792;10.938;2023-04-08T05:43:00;60.11;34.15;73.39;;
72160;Laerm;60045;51.792;10.938;2023-04-08T05:45:27;47.81;33.92;62.09;;
72160;Laerm;60045;51.792;10.938;2023-04-08T05:47:53;53.85;32.86;69.64;;
72160;Laerm;60045;51.792;10.938;2023-04-08T05:50:20;54.64;33.79;71.09;;
72160;Laerm;60045;51.792;10.938;2023-04-08T05:52:46;55.59;33.46;69.61;;
72160;Laerm;60045;51.792;10.938;2023-04-08T05:55:12;60.79;34.80;76.40;;
72160;Laerm;60045;51.792;10.938;2023-04-08T05:57:40;56.53;33.05;71.15;;
72160;Laerm;60045;51.792;10.938;2023-04-08T06:00:07;56.75;34.54;70.65;;
72160;Laerm;60045;51.792;10.938;2023-04-08T06:02:34;56.17;33.44;73.18;;
72160;Laerm;60045;51.792;10.938;2023-04-08T06:05:01;58.61;33.45;76.88;;
72160;Laerm;60045;51.792;10.938;2023-04-08T06:07:27;60.49;33.52;75.33;;
72160;Laerm;60045;51.792;10.938;2023-04-08T06:09:53;61.57;34.82;75.67;;
72160;Laerm;60045;51.792;10.938;2023-04-08T06:12:20;55.13;32.72;68.29;;
72160;Laerm;60045;51.792;10.938;2023-04-08T06:14:48;60.63;32.88;74.65;;
72160;Laerm;60045;51.792;10.938;2023-04-08T06:17:18;51.59;34.07;77.32;;
72160;Laerm;60045;51.792;10.938;2023-04-08T06:19:44;56.62;32.90;73.78;;
72160;Laerm;60045;51.792;10.938;2023-04-08T06:22:10;46.23;32.56;61.29;;
72160;Laerm;60045;51.792;10.938;2023-04-08T06:24:37;60.23;33.09;75.46;;
72160;Laerm;60045;51.792;10.938;2023-04-08T06:27:03;60.99;32.89;83.00;;
72160;Laerm;60045;51.792;10.938;2023-04-08T06:29:29;63.08;33.60;76.51;;
72160;Laerm;60045;51.792;10.938;2023-04-08T06:31:57;54.00;33.73;69.65;;
72160;Laerm;60045;51.792;10.938;2023-04-08T06:34:23;55.34;33.39;76.79;;
72160;Laerm;60045;51.792;10.938;2023-04-08T06:36:49;55.51;32.82;72.13;;
72160;Laerm;60045;51.792;10.938;2023-04-08T06:39:15;57.24;34.40;70.26;;
72160;Laerm;60045;51.792;10.938;2023-04-08T06:41:43;56.07;33.73;71.43;;
72160;Laerm;60045;51.792;10.938;2023-04-08T06:44:09;58.70;33.64;72.66;;
72160;Laerm;60045;51.792;10.938;2023-04-08T06:46:36;60.31;34.48;72.51;;
72160;Laerm;60045;51.792;10.938;2023-04-08T06:49:03;61.79;34.35;77.86;;
72160;Laerm;60045;51.792;10.938;2023-04-08T06:51:30;58.47;33.96;71.56;;
72160;Laerm;60045;51.792;10.938;2023-04-08T06:53:57;59.92;35.69;73.51;;
72160;Laerm;60045;51.792;10.938;2023-04-08T06:56:23;60.74;33.58;77.67;;
72160;Laerm;60045;51.792;10.938;2023-04-08T06:58:50;59.65;35.02;74.76;;
72160;Laerm;60045;51.792;10.938;2023-04-08T07:01:17;60.25;35.30;72.49;;
72160;Laerm;60045;51.792;10.938;2023-04-08T07:03:43;60.39;35.63;73.27;;
72160;Laerm;60045;51.792;10.938;2023-04-08T07:06:11;63.66;37.15;80.39;;
72160;Laerm;60045;51.792;10.938;2023-04-08T07:08:37;61.44;35.91;76.46;;
72160;Laerm;60045;51.792;10.938;2023-04-08T07:11:03;60.49;36.50;71.96;;
72160;Laerm;60045;51.792;10.938;2023-04-08T07:13:29;59.89;35.75;74.08;;
72160;Laerm;60045;51.792;10.938;2023-04-08T07:15:56;57.74;34.19;70.68;;
72160;Laerm;60045;51.792;10.938;2023-04-08T07:18:22;61.49;34.48;73.61;;
72160;Laerm;60045;51.792;10.938;2023-04-08T07:20:50;59.73;35.21;74.60;;
72160;Laerm;60045;51.792;10.938;2023-04-08T07:23:18;62.37;36.34;76.44;;
72160;Laerm;60045;51.792;10.938;2023-04-08T07:25:44;63.26;38.10;76.85;;
72160;Laerm;60045;51.792;10.938;2023-04-08T07:28:11;60.45;35.62;73.86;;
72160;Laerm;60045;51.792;10.938;2023-04-08T07:30:37;58.86;34.35;72.88;;
72160;Laerm;60045;51.792;10.938;2023-04-08T07:33:03;61.01;35.42;74.34;;
72160;Laerm;60045;51.792;10.938;2023-04-08T07:35:29;61.29;36.42;73.56;;
72160;Laerm;60045;51.792;10.938;2023-04-08T07:37:55;64.39;36.78;76.86;;
72160;Laerm;60045;51.792;10.938;2023-04-08T07:40:23;61.41;38.29;72.91;;
72160;Laerm;60045;51.792;10.938;2023-04-08T07:42:50;63.45;34.68;74.82;;
72160;Laerm;60045;51.792;10.938;2023-04-08T07:45:17;59.57;33.94;75.97;;
72160;Laerm;60045;51.792;10.938;2023-04-08T07:47:43;60.87;37.60;71.28;;
72160;Laerm;60045;51.792;10.938;2023-04-08T07:50:10;61.75;36.10;75.97;;
72160;Laerm;60045;51.792;10.938;2023-04-08T07:52:36;60.61;36.15;73.95;;
72160;Laerm;60045;51.792;10.938;2023-04-08T07:55:02;65.93;42.19;77.69;;
72160;Laerm;60045;51.792;10.938;2023-04-08T07:57:31;64.83;40.47;76.57;;
72160;Laerm;60045;51.792;10.938;2023-04-08T07:59:57;61.14;37.25;73.05;;
72160;Laerm;60045;51.792;10.938;2023-04-08T08:02:23;63.79;37.15;75.90;;
72160;Laerm;60045;51.792;10.938;2023-04-08T08:04:49;62.56;38.24;75.38;;
72160;Laerm;60045;51.792;10.938;2023-04-08T08:07:16;64.79;37.75;74.42;;
72160;Laerm;60045;51.792;10.938;2023-04-08T08:09:42;63.96;39.26;75.52;;
72160;Laerm;60045;51.792;10.938;2023-04-08T08:12:09;63.06;39.56;75.99;;
72160;Laerm;60045;51.792;10.938;2023-04-08T08:14:37;66.47;40.79;76.78;;
72160;Laerm;60045;51.792;10.938;2023-04-08T08:17:03;65.37;38.82;76.62;;
72160;Laerm;60045;51.792;10.938;2023-04-08T08:19:29;65.87;38.86;76.39;;
72160;Laerm;60045;51.792;10.938;2023-04-08T08:21:56;65.50;38.81;79.73;;
72160;Laerm;60045;51.792;10.938;2023-04-08T08:24:22;65.74;41.45;76.58;;
72160;Laerm;60045;51.792;10.938;2023-04-08T08:26:49;63.52;38.04;74.06;;
72160;Laerm;60045;51.792;10.938;2023-04-08T08:29:16;66.02;36.41;78.59;;
72160;Laerm;60045;51.792;10.938;2023-04-08T08:31:43;63.69;38.04;74.32;;
72160;Laerm;60045;51.792;10.938;2023-04-08T08:34:10;61.42;37.36;71.22;;
72160;Laerm;60045;51.792;10.938;2023-04-08T08:36:36;61.76;36.16;74.52;;
72160;Laerm;60045;51.792;10.938;2023-04-08T08:39:02;62.86;38.77;74.55;;
72160;Laerm;60045;51.792;10.938;2023-04-08T08:41:31;64.98;37.36;74.27;;
72160;Laerm;60045;51.792;10.938;2023-04-08T08:43:58;62.40;38.76;73.90;;
72160;Laerm;60045;51.792;10.938;2023-04-08T08:46:24;66.13;38.88;79.09;;
72160;Laerm;60045;51.792;10.938;2023-04-08T08:48:52;65.14;37.96;75.70;;
72160;Laerm;60045;51.792;10.938;2023-04-08T08:51:18;65.17;41.80;76.78;;
72160;Laerm;60045;51.792;10.938;2023-04-08T08:53:45;65.56;40.94;78.95;;
72160;Laerm;60045;51.792;10.938;2023-04-08T08:56:11;62.75;37.63;75.37;;
72160;Laerm;60045;51.792;10.938;2023-04-08T08:58:37;62.33;37.72;74.63;;
72160;Laerm;60045;51.792;10.938;2023-04-08T09:03:45;60.53;37.15;73.79;;
72160;Laerm;60045;51.792;10.938;2023-04-08T09:06:14;65.31;42.11;79.35;;
72160;Laerm;60045;51.792;10.938;2023-04-08T09:08:43;62.56;37.01;72.47;;
72160;Laerm;60045;51.792;10.938;2023-04-08T09:11:10;64.71;40.13;78.66;;
72160;Laerm;60045;51.792;10.938;2023-04-08T09:13:36;65.08;39.56;75.88;;
72160;Laerm;60045;51.792;10.938;2023-04-08T09:16:03;62.83;37.09;74.32;;
72160;Laerm;60045;51.792;10.938;2023-04-08T09:18:30;64.72;40.29;78.33;;
72160;Laerm;60045;51.792;10.938;2023-04-08T09:20:58;63.54;39.00;74.35;;
72160;Laerm;60045;51.792;10.938;2023-04-08T09:23:29;64.29;40.27;76.70;;
72160;Laerm;60045;51.792;10.938;2023-04-08T09:26:05;63.42;40.02;75.05;;
72160;Laerm;60045;51.792;10.938;2023-04-08T09:28:32;63.61;38.41;74.56;;
72160;Laerm;60045;51.792;10.938;2023-04-08T09:30:58;63.60;38.65;75.45;;
72160;Laerm;60045;51.792;10.938;2023-04-08T09:33:29;63.45;36.33;74.16;;
72160;Laerm;60045;51.792;10.938;2023-04-08T09:35:55;65.61;41.96;79.84;;
72160;Laerm;60045;51.792;10.938;2023-04-08T09:38:22;65.57;44.65;78.30;;
72160;Laerm;60045;51.792;10.938;2023-04-08T09:40:50;60.69;36.02;74.07;;
72160;Laerm;60045;51.792;10.938;2023-04-08T09:43:17;63.72;41.22;75.48;;
72160;Laerm;60045;51.792;10.938;2023-04-08T09:45:47;62.56;39.81;72.37;;
72160;Laerm;60045;51.792;10.938;2023-04-08T09:48:16;64.95;36.60;81.97;;
72160;Laerm;60045;51.792;10.938;2023-04-08T09:50:44;61.84;37.90;74.52;;
72160;Laerm;60045;51.792;10.938;2023-04-08T09:53:12;66.30;42.11;80.44;;
72160;Laerm;60045;51.792;10.938;2023-04-08T09:55:40;62.14;40.65;74.28;;
72160;Laerm;60045;51.792;10.938;2023-04-08T09:58:10;63.08;38.32;77.29;;
72160;Laerm;60045;51.792;10.938;2023-04-08T10:00:37;60.45;34.88;73.17;;
72160;Laerm;60045;51.792;10.938;2023-04-08T10:03:05;60.01;33.69;73.38;;
72160;Laerm;60045;51.792;10.938;2023-04-08T10:05:35;64.75;41.88;73.48;;
72160;Laerm;60045;51.792;10.938;2023-04-08T10:08:02;64.74;38.94;76.12;;
72160;Laerm;60045;51.792;10.938;2023-04-08T10:10:29;65.56;38.46;76.36;;
72160;Laerm;60045;51.792;10.938;2023-04-08T10:12:55;58.34;34.64;74.30;;
72160;Laerm;60045;51.792;10.938;2023-04-08T10:15:27;64.69;36.34;77.00;;
72160;Laerm;60045;51.792;10.938;2023-04-08T10:17:54;59.60;36.16;71.56;;
72160;Laerm;60045;51.792;10.938;2023-04-08T10:23:06;61.36;39.34;74.21;;
72160;Laerm;60045;51.792;10.938;2023-04-08T10:25:33;61.98;35.42;78.71;;
72160;Laerm;60045;51.792;10.938;2023-04-08T10:27:59;62.64;39.98;72.60;;
72160;Laerm;60045;51.792;10.938;2023-04-08T10:30:48;64.07;37.14;76.60;;
72160;Laerm;60045;51.792;10.938;2023-04-08T10:33:15;61.89;35.24;74.25;;
72160;Laerm;60045;51.792;10.938;2023-04-08T10:35:42;61.39;34.74;73.04;;
72160;Laerm;60045;51.792;10.938;2023-04-08T10:38:10;60.36;34.16;74.50;;
72160;Laerm;60045;51.792;10.938;2023-04-08T10:40:38;62.50;36.52;74.58;;
72160;Laerm;60045;51.792;10.938;2023-04-08T10:43:05;62.07;36.80;76.30;;
72160;Laerm;60045;51.792;10.938;2023-04-08T10:45:32;62.27;34.23;77.40;;
72160;Laerm;60045;51.792;10.938;2023-04-08T10:48:11;59.99;36.57;74.56;;
72160;Laerm;60045;51.792;10.938;2023-04-08T10:50:37;62.68;35.54;75.55;;
72160;Laerm;60045;51.792;10.938;2023-04-08T10:53:03;63.52;36.62;76.48;;
72160;Laerm;60045;51.792;10.938;2023-04-08T10:55:30;61.60;38.57;75.71;;
72160;Laerm;60045;51.792;10.938;2023-04-08T10:58:04;64.12;41.92;74.67;;
72160;Laerm;60045;51.792;10.938;2023-04-08T11:00:31;63.85;37.31;75.26;;
72160;Laerm;60045;51.792;10.938;2023-04-08T11:02:59;64.46;40.78;74.13;;
72160;Laerm;60045;51.792;10.938;2023-04-08T11:05:26;59.74;35.42;76.55;;
72160;Laerm;60045;51.792;10.938;2023-04-08T11:07:53;61.32;38.67;78.59;;
72160;Laerm;60045;51.792;10.938;2023-04-08T11:10:19;57.29;33.56;71.15;;
72160;Laerm;60045;51.792;10.938;2023-04-08T11:12:46;64.16;35.17;77.41;;
72160;Laerm;60045;51.792;10.938;2023-04-08T11:15:12;61.21;34.59;73.99;;
72160;Laerm;60045;51.792;10.938;2023-04-08T11:17:39;59.91;37.39;72.49;;
72160;Laerm;60045;51.792;10.938;2023-04-08T11:20:05;64.35;40.06;74.30;;
72160;Laerm;60045;51.792;10.938;2023-04-08T11:22:34;64.53;38.84;74.17;;
72160;Laerm;60045;51.792;10.938;2023-04-08T11:25:01;59.34;37.45;72.25;;
72160;Laerm;60045;51.792;10.938;2023-04-08T11:27:27;64.95;37.47;79.57;;
72160;Laerm;60045;51.792;10.938;2023-04-08T11:29:54;62.03;36.88;73.03;;
72160;Laerm;60045;51.792;10.938;2023-04-08T11:32:21;63.35;36.23;74.56;;
72160;Laerm;60045;51.792;10.938;2023-04-08T11:34:48;62.30;37.37;80.78;;
72160;Laerm;60045;51.792;10.938;2023-04-08T11:37:14;59.77;35.46;72.39;;
72160;Laerm;60045;51.792;10.938;2023-04-08T11:39:42;63.66;37.60;78.46;;
72160;Laerm;60045;51.792;10.938;2023-04-08T11:42:10;62.69;37.48;74.13;;
72160;Laerm;60045;51.792;10.938;2023-04-08T11:44:51;59.95;35.69;73.20;;
72160;Laerm;60045;51.792;10.938;2023-04-08T11:47:17;62.36;38.46;75.19;;
72160;Laerm;60045;51.792;10.938;2023-04-08T11:49:44;61.73;36.11;76.79;;
72160;Laerm;60045;51.792;10.938;2023-04-08T11:52:10;62.85;37.03;75.96;;
72160;Laerm;60045;51.792;10.938;2023-04-08T11:54:39;64.33;38.58;74.92;;
72160;Laerm;60045;51.792;10.938;2023-04-08T11:57:08;63.71;38.36;78.48;;
72160;Laerm;60045;51.792;10.938;2023-04-08T11:59:34;58.22;35.76;71.67;;
72160;Laerm;60045;51.792;10.938;2023-04-08T12:02:01;63.21;36.92;73.92;;
72160;Laerm;60045;51.792;10.938;2023-04-08T12:04:27;62.54;36.79;77.42;;
72160;Laerm;60045;51.792;10.938;2023-04-08T12:06:54;64.99;41.19;77.14;;
72160;Laerm;60045;51.792;10.938;2023-04-08T12:09:20;64.59;36.09;75.20;;
72160;Laerm;60045;51.792;10.938;2023-04-08T12:11:46;62.70;36.58;75.47;;
72160;Laerm;60045;51.792;10.938;2023-04-08T12:14:14;61.86;38.66;74.68;;
72160;Laerm;60045;51.792;10.938;2023-04-08T12:16:40;62.19;36.65;76.10;;
72160;Laerm;60045;51.792;10.938;2023-04-08T12:19:06;61.35;36.52;74.96;;
72160;Laerm;60045;51.792;10.938;2023-04-08T12:21:33;60.05;38.48;73.54;;
72160;Laerm;60045;51.792;10.938;2023-04-08T12:24:00;63.18;40.77;73.46;;
72160;Laerm;60045;51.792;10.938;2023-04-08T12:26:26;64.66;38.73;77.01;;
72160;Laerm;60045;51.792;10.938;2023-04-08T12:28:52;61.71;37.13;74.33;;
72160;Laerm;60045;51.792;10.938;2023-04-08T12:31:20;63.47;37.75;79.24;;
72160;Laerm;60045;51.792;10.938;2023-04-08T12:33:47;61.44;37.73;79.40;;
72160;Laerm;60045;51.792;10.938;2023-04-08T12:36:13;64.15;38.21;75.21;;
72160;Laerm;60045;51.792;10.938;2023-04-08T12:38:39;62.45;37.71;75.04;;
72160;Laerm;60045;51.792;10.938;2023-04-08T12:41:06;59.95;35.20;74.87;;
72160;Laerm;60045;51.792;10.938;2023-04-08T12:43:32;66.79;40.45;84.18;;
72160;Laerm;60045;51.792;10.938;2023-04-08T12:45:58;64.41;38.95;75.52;;
72160;Laerm;60045;51.792;10.938;2023-04-08T12:48:26;61.86;37.12;72.46;;
72160;Laerm;60045;51.792;10.938;2023-04-08T12:50:53;61.95;36.84;74.78;;
72160;Laerm;60045;51.792;10.938;2023-04-08T12:53:20;62.94;37.95;75.18;;
72160;Laerm;60045;51.792;10.938;2023-04-08T12:55:46;61.66;38.48;74.15;;
72160;Laerm;60045;51.792;10.938;2023-04-08T12:58:12;61.37;35.44;75.15;;
72160;Laerm;60045;51.792;10.938;2023-04-08T13:00:40;61.95;37.20;74.29;;
72160;Laerm;60045;51.792;10.938;2023-04-08T13:03:10;62.29;37.09;75.38;;
72160;Laerm;60045;51.792;10.938;2023-04-08T13:05:38;60.28;35.21;73.72;;
72160;Laerm;60045;51.792;10.938;2023-04-08T13:08:04;62.91;37.49;73.44;;
72160;Laerm;60045;51.792;10.938;2023-04-08T13:10:30;59.30;35.25;74.52;;
72160;Laerm;60045;51.792;10.938;2023-04-08T13:12:57;61.95;36.83;75.60;;
72160;Laerm;60045;51.792;10.938;2023-04-08T13:15:23;61.89;37.46;73.24;;
72160;Laerm;60045;51.792;10.938;2023-04-08T13:17:49;60.42;35.07;76.03;;
72160;Laerm;60045;51.792;10.938;2023-04-08T13:20:15;60.01;36.74;73.19;;
72160;Laerm;60045;51.792;10.938;2023-04-08T13:22:43;61.33;37.13;74.28;;
72160;Laerm;60045;51.792;10.938;2023-04-08T13:25:09;63.18;36.35;74.07;;
72160;Laerm;60045;51.792;10.938;2023-04-08T13:27:36;59.85;35.39;73.79;;
72160;Laerm;60045;51.792;10.938;2023-04-08T13:30:02;63.52;36.28;74.43;;
72160;Laerm;60045;51.792;10.938;2023-04-08T13:32:29;63.20;40.14;74.27;;
72160;Laerm;60045;51.792;10.938;2023-04-08T13:34:55;59.56;34.34;74.48;;